createdAt,value
2023-05-15T00:07:27.748Z,11.07
2023-05-15T00:22:33.373Z,11.02
2023-05-15T00:37:39.239Z,11.23
2023-05-15T00:52:45.519Z,11.34
2023-05-15T01:07:58.944Z,11.20
2023-05-15T01:23:13.673Z,11.29
2023-05-15T01:38:27.936Z,10.66
2023-05-15T01:53:35.648Z,10.59
2023-05-15T02:08:42.753Z,10.37
2023-05-15T02:23:48.509Z,9.97
2023-05-15T02:38:55.615Z,9.70
2023-05-15T02:54:02.926Z,9.79
2023-05-15T03:09:08.581Z,10.25
2023-05-15T03:24:14.279Z,10.27
2023-05-15T03:39:20.000Z,10.33
2023-05-15T03:54:25.752Z,10.25
2023-05-15T04:09:31.617Z,10.27
2023-05-15T04:24:37.291Z,10.53
2023-05-15T04:39:43.015Z,10.34
2023-05-15T04:54:51.305Z,10.45
2023-05-15T05:09:57.274Z,10.72
2023-05-15T05:25:03.150Z,11.18
2023-05-15T05:40:10.925Z,11.47
2023-05-15T05:55:16.932Z,11.89
2023-05-15T06:10:23.335Z,12.40
2023-05-15T06:25:29.395Z,12.65
2023-05-15T06:40:35.155Z,12.99
2023-05-15T06:55:40.807Z,12.97
2023-05-15T07:10:46.265Z,13.36
2023-05-15T07:25:51.724Z,13.63
2023-05-15T07:40:57.147Z,14.06
2023-05-15T07:56:02.782Z,14.44
2023-05-15T08:11:08.354Z,14.41
2023-05-15T08:26:13.888Z,16.34
2023-05-15T08:41:40.019Z,16.19
2023-05-15T08:56:46.819Z,18.49
2023-05-15T09:11:53.474Z,17.83
2023-05-15T09:27:06.902Z,17.29
2023-05-15T09:42:14.094Z,16.95
2023-05-15T09:57:24.389Z,17.64
2023-05-15T10:12:32.386Z,19.23
2023-05-15T10:27:39.002Z,19.40
2023-05-15T10:42:46.738Z,21.43
2023-05-15T10:57:55.132Z,21.42
2023-05-15T11:13:02.420Z,22.49
2023-05-15T11:28:08.007Z,23.59
2023-05-15T11:43:20.970Z,22.95
2023-05-15T11:58:27.565Z,21.64
2023-05-15T12:13:34.058Z,22.66
2023-05-15T12:28:40.554Z,20.70
2023-05-15T12:43:46.399Z,21.64
2023-05-15T12:58:54.726Z,21.06
2023-05-15T13:14:00.304Z,21.68
2023-05-15T13:29:06.199Z,21.52
2023-05-15T13:44:11.771Z,19.17
2023-05-15T13:59:17.512Z,18.96
2023-05-15T14:14:23.044Z,17.77
2023-05-15T14:29:28.664Z,18.32
2023-05-15T14:44:34.306Z,18.55
2023-05-15T14:59:39.949Z,18.68
2023-05-15T15:14:45.420Z,18.77
2023-05-15T15:29:51.036Z,18.83
2023-05-15T15:44:56.533Z,19.38
2023-05-15T16:00:02.077Z,19.85
2023-05-15T16:45:46.512Z,18.97
2023-05-15T17:00:52.331Z,18.15
2023-05-15T17:15:57.890Z,17.00
2023-05-15T17:31:10.675Z,15.47
2023-05-15T17:46:16.341Z,15.45
2023-05-15T18:01:22.488Z,14.77
2023-05-15T18:16:28.426Z,14.32
2023-05-15T18:31:34.305Z,14.60
2023-05-15T18:46:40.070Z,14.33
2023-05-15T19:01:46.520Z,14.03
2023-05-15T19:16:52.376Z,13.60
2023-05-15T19:31:58.138Z,13.25
2023-05-15T19:47:03.756Z,13.35
2023-05-15T20:02:10.669Z,13.24
2023-05-15T20:17:16.491Z,13.15
2023-05-15T20:32:22.767Z,13.34
2023-05-15T20:47:28.358Z,13.16
2023-05-15T21:02:34.003Z,13.04
2023-05-15T21:17:40.054Z,12.94
2023-05-15T21:32:45.707Z,12.77
2023-05-15T21:47:51.392Z,12.81
2023-05-15T22:02:57.392Z,12.82
2023-05-15T22:18:03.788Z,12.70
2023-05-15T22:33:09.441Z,12.43
2023-05-15T22:48:15.968Z,12.30
2023-05-15T23:03:21.638Z,12.19
2023-05-15T23:18:27.308Z,12.23
2023-05-15T23:33:32.880Z,12.13
2023-05-15T23:48:38.628Z,12.07
